Avelgem, Belgium
Current Conditions -  °F | °C
As of 2:30 PM on Friday 19 Dec 2014 (Local Time) from LFQQ Reporting Station
Broken Clouds Broken Clouds  
Wind Chill: 50°   Ceiling: 2300
Heat Index: 50°   Visibility: 6mi
Dew Point: 46°   Wind: 10mph
Humidity: 87%   Direction: 300°WNW
Pressure: 29.97"   Gusts: NA
Location:  50.78°N, 3.45°E
Report Text: LFQQ 191330Z 30009KT 9999 SCT015 BKN023 10/08 Q1015 NOSIG
Loading
Personal Weather Stations






























Interactive Weather Map New forecast layout! Learn more

10-Day Weather Forecast

Advertisements
Track Severe Weather on mobile